PILOTS ONLINE: 484    ATC ONLINE: 86

EGDX - MOD St. Athan

Location

IATA DGX
City St. Athan
Country  United Kingdom
Latitude 51° 24' 17" N
Longitude 3° 26' 8" W
Elevation 163 ft
Type Medium Airport

Runways

08/26 5988 ft / 141 ft

Weather

METAR
2014/07/25 20:50
EGDX 252050Z AUTO 28001KT 9999 SCT050/// 21/15 Q1017
TAF
No TAF available

Outbound flights

Inbound flights